sensor_id;sensor_type;location;lat;lon;timestamp;temperature;humidity
6520;DHT22;3293;51.690;5.982;2023-03-24T00:04:48;11.80;99.90
6520;DHT22;3293;51.690;5.982;2023-03-24T00:09:50;11.80;99.90
6520;DHT22;3293;51.690;5.982;2023-03-24T00:14:50;11.80;99.90
6520;DHT22;3293;51.690;5.982;2023-03-24T00:19:53;11.80;99.90
6520;DHT22;3293;51.690;5.982;2023-03-24T00:24:55;11.80;99.90
6520;DHT22;3293;51.690;5.982;2023-03-24T00:29:55;11.80;99.90
6520;DHT22;3293;51.690;5.982;2023-03-24T00:34:57;11.80;99.90
6520;DHT22;3293;51.690;5.982;2023-03-24T00:39:59;11.80;99.90
6520;DHT22;3293;51.690;5.982;2023-03-24T00:44:59;11.80;99.90
6520;DHT22;3293;51.690;5.982;2023-03-24T00:49:59;11.80;99.90
6520;DHT22;3293;51.690;5.982;2023-03-24T00:55:02;11.80;99.90
6520;DHT22;3293;51.690;5.982;2023-03-24T01:00:05;11.90;99.90
6520;DHT22;3293;51.690;5.982;2023-03-24T01:05:13;11.90;99.90
6520;DHT22;3293;51.690;5.982;2023-03-24T01:10:16;11.90;99.90
6520;DHT22;3293;51.690;5.982;2023-03-24T01:15:19;12.00;99.90
6520;DHT22;3293;51.690;5.982;2023-03-24T01:20:21;12.00;99.90
6520;DHT22;3293;51.690;5.982;2023-03-24T01:25:22;12.10;99.90
6520;DHT22;3293;51.690;5.982;2023-03-24T01:30:25;12.10;99.90
6520;DHT22;3293;51.690;5.982;2023-03-24T01:35:25;12.20;99.90
6520;DHT22;3293;51.690;5.982;2023-03-24T01:40:30;12.10;99.90
6520;DHT22;3293;51.690;5.982;2023-03-24T01:56:25;12.10;99.90
6520;DHT22;3293;51.690;5.982;2023-03-24T02:01:28;12.10;99.90
6520;DHT22;3293;51.690;5.982;2023-03-24T02:06:31;12.10;99.90
6520;DHT22;3293;51.690;5.982;2023-03-24T02:11:33;12.10;99.90
6520;DHT22;3293;51.690;5.982;2023-03-24T02:17:08;12.10;99.90
6520;DHT22;3293;51.690;5.982;2023-03-24T02:22:50;12.00;99.90
6520;DHT22;3293;51.690;5.982;2023-03-24T02:28:22;12.00;99.90
6520;DHT22;3293;51.690;5.982;2023-03-24T02:44:46;12.00;99.90
6520;DHT22;3293;51.690;5.982;2023-03-24T02:50:00;12.10;99.90
6520;DHT22;3293;51.690;5.982;2023-03-24T02:55:15;12.10;99.90
6520;DHT22;3293;51.690;5.982;2023-03-24T03:00:30;12.10;99.90
6520;DHT22;3293;51.690;5.982;2023-03-24T03:05:35;12.10;99.90
6520;DHT22;3293;51.690;5.982;2023-03-24T03:10:41;12.10;99.90
6520;DHT22;3293;51.690;5.982;2023-03-24T03:15:48;12.10;99.90
6520;DHT22;3293;51.690;5.982;2023-03-24T03:20:53;12.10;99.90
6520;DHT22;3293;51.690;5.982;2023-03-24T03:25:58;12.10;99.90
6520;DHT22;3293;51.690;5.982;2023-03-24T03:31:08;12.10;99.90
6520;DHT22;3293;51.690;5.982;2023-03-24T03:36:21;12.20;99.90
6520;DHT22;3293;51.690;5.982;2023-03-24T03:41:23;12.20;99.90
6520;DHT22;3293;51.690;5.982;2023-03-24T03:46:23;12.20;99.90
6520;DHT22;3293;51.690;5.982;2023-03-24T03:51:23;12.20;99.90
6520;DHT22;3293;51.690;5.982;2023-03-24T03:56:28;12.20;99.90
6520;DHT22;3293;51.690;5.982;2023-03-24T04:01:30;12.10;99.90
6520;DHT22;3293;51.690;5.982;2023-03-24T04:06:47;11.90;99.90
6520;DHT22;3293;51.690;5.982;2023-03-24T04:12:17;11.60;99.90
6520;DHT22;3293;51.690;5.982;2023-03-24T04:29:17;10.90;99.90
6520;DHT22;3293;51.690;5.982;2023-03-24T04:33:58;10.70;99.90
6520;DHT22;3293;51.690;5.982;2023-03-24T04:39:01;10.50;99.90
6520;DHT22;3293;51.690;5.982;2023-03-24T04:44:03;10.50;99.90
6520;DHT22;3293;51.690;5.982;2023-03-24T04:49:04;10.50;99.90
6520;DHT22;3293;51.690;5.982;2023-03-24T04:54:04;10.50;99.90
6520;DHT22;3293;51.690;5.982;2023-03-24T04:59:04;10.50;99.90
6520;DHT22;3293;51.690;5.982;2023-03-24T05:04:06;10.50;99.90
6520;DHT22;3293;51.690;5.982;2023-03-24T05:09:06;10.60;99.90
6520;DHT22;3293;51.690;5.982;2023-03-24T05:14:06;10.70;99.90
6520;DHT22;3293;51.690;5.982;2023-03-24T05:19:06;10.60;99.90
6520;DHT22;3293;51.690;5.982;2023-03-24T05:24:07;10.50;99.90
6520;DHT22;3293;51.690;5.982;2023-03-24T05:29:07;10.30;99.90
6520;DHT22;3293;51.690;5.982;2023-03-24T05:34:07;10.20;99.90
6520;DHT22;3293;51.690;5.982;2023-03-24T05:39:07;10.00;99.90
6520;DHT22;3293;51.690;5.982;2023-03-24T05:44:07;10.00;99.90
6520;DHT22;3293;51.690;5.982;2023-03-24T05:49:07;9.90;99.90
6520;DHT22;3293;51.690;5.982;2023-03-24T05:54:07;9.70;99.90
6520;DHT22;3293;51.690;5.982;2023-03-24T05:59:07;9.60;99.90
6520;DHT22;3293;51.690;5.982;2023-03-24T06:04:07;9.70;99.90
6520;DHT22;3293;51.690;5.982;2023-03-24T06:09:07;9.90;99.90
6520;DHT22;3293;51.690;5.982;2023-03-24T06:14:07;9.90;99.90
6520;DHT22;3293;51.690;5.982;2023-03-24T06:19:07;9.90;99.90
6520;DHT22;3293;51.690;5.982;2023-03-24T06:24:07;10.00;99.90
6520;DHT22;3293;51.690;5.982;2023-03-24T06:29:07;10.20;99.90
6520;DHT22;3293;51.690;5.982;2023-03-24T06:34:07;10.40;99.90
6520;DHT22;3293;51.690;5.982;2023-03-24T06:39:07;10.50;99.90
6520;DHT22;3293;51.690;5.982;2023-03-24T06:44:07;10.70;99.90
6520;DHT22;3293;51.690;5.982;2023-03-24T06:49:07;10.80;99.90
6520;DHT22;3293;51.690;5.982;2023-03-24T06:54:07;10.90;99.90
6520;DHT22;3293;51.690;5.982;2023-03-24T06:59:08;11.00;99.90
6520;DHT22;3293;51.690;5.982;2023-03-24T07:04:08;11.10;99.90
6520;DHT22;3293;51.690;5.982;2023-03-24T07:09:08;11.20;99.90
6520;DHT22;3293;51.690;5.982;2023-03-24T07:14:08;11.70;99.90
6520;DHT22;3293;51.690;5.982;2023-03-24T07:19:08;12.50;99.90
6520;DHT22;3293;51.690;5.982;2023-03-24T07:24:08;13.50;99.90
6520;DHT22;3293;51.690;5.982;2023-03-24T07:29:09;14.70;99.90
6520;DHT22;3293;51.690;5.982;2023-03-24T07:34:10;15.20;99.90
6520;DHT22;3293;51.690;5.982;2023-03-24T07:39:11;15.30;99.90
6520;DHT22;3293;51.690;5.982;2023-03-24T07:44:12;15.30;99.90
6520;DHT22;3293;51.690;5.982;2023-03-24T07:49:12;15.30;99.90
6520;DHT22;3293;51.690;5.982;2023-03-24T07:54:12;15.50;99.90
6520;DHT22;3293;51.690;5.982;2023-03-24T07:59:11;15.50;99.90
6520;DHT22;3293;51.690;5.982;2023-03-24T08:04:12;15.70;99.90
6520;DHT22;3293;51.690;5.982;2023-03-24T08:09:12;15.60;99.90
6520;DHT22;3293;51.690;5.982;2023-03-24T08:14:13;16.40;99.90
6520;DHT22;3293;51.690;5.982;2023-03-24T08:19:13;16.30;99.90
6520;DHT22;3293;51.690;5.982;2023-03-24T08:24:13;15.70;99.90
6520;DHT22;3293;51.690;5.982;2023-03-24T08:29:13;15.30;99.90
6520;DHT22;3293;51.690;5.982;2023-03-24T08:34:13;14.70;99.90
6520;DHT22;3293;51.690;5.982;2023-03-24T08:39:13;14.40;99.90
6520;DHT22;3293;51.690;5.982;2023-03-24T08:44:13;13.90;99.90
6520;DHT22;3293;51.690;5.982;2023-03-24T08:49:12;14.20;99.90
6520;DHT22;3293;51.690;5.982;2023-03-24T08:54:12;14.90;99.90
6520;DHT22;3293;51.690;5.982;2023-03-24T08:59:12;14.80;99.90
6520;DHT22;3293;51.690;5.982;2023-03-24T09:04:12;14.40;99.90
6520;DHT22;3293;51.690;5.982;2023-03-24T09:09:12;13.90;99.90
6520;DHT22;3293;51.690;5.982;2023-03-24T09:14:12;13.90;99.90
6520;DHT22;3293;51.690;5.982;2023-03-24T09:19:12;13.80;99.90
6520;DHT22;3293;51.690;5.982;2023-03-24T09:24:13;13.80;99.90
6520;DHT22;3293;51.690;5.982;2023-03-24T09:29:13;14.20;99.90
6520;DHT22;3293;51.690;5.982;2023-03-24T09:34:13;14.80;99.90
6520;DHT22;3293;51.690;5.982;2023-03-24T09:39:13;14.60;99.90
6520;DHT22;3293;51.690;5.982;2023-03-24T09:44:38;14.20;99.90
6520;DHT22;3293;51.690;5.982;2023-03-24T09:49:41;13.70;99.90
6520;DHT22;3293;51.690;5.982;2023-03-24T09:54:54;13.50;99.90
6520;DHT22;3293;51.690;5.982;2023-03-24T09:59:57;13.70;99.90
6520;DHT22;3293;51.690;5.982;2023-03-24T10:04:57;13.60;99.90
6520;DHT22;3293;51.690;5.982;2023-03-24T10:09:59;13.90;99.90
6520;DHT22;3293;51.690;5.982;2023-03-24T10:26:02;13.40;99.90
6520;DHT22;3293;51.690;5.982;2023-03-24T10:31:09;13.30;99.90
6520;DHT22;3293;51.690;5.982;2023-03-24T10:36:12;13.30;99.90
6520;DHT22;3293;51.690;5.982;2023-03-24T10:41:24;13.50;99.90
6520;DHT22;3293;51.690;5.982;2023-03-24T10:46:26;13.60;99.90
6520;DHT22;3293;51.690;5.982;2023-03-24T10:51:31;13.90;99.90
6520;DHT22;3293;51.690;5.982;2023-03-24T10:56:41;14.20;99.90
6520;DHT22;3293;51.690;5.982;2023-03-24T11:01:41;14.40;99.90
6520;DHT22;3293;51.690;5.982;2023-03-24T11:07:13;14.60;99.90
6520;DHT22;3293;51.690;5.982;2023-03-24T11:12:29;14.60;99.90
6520;DHT22;3293;51.690;5.982;2023-03-24T11:17:29;14.40;99.90
6520;DHT22;3293;51.690;5.982;2023-03-24T11:22:29;14.20;99.90
6520;DHT22;3293;51.690;5.982;2023-03-24T11:27:29;14.20;99.90
6520;DHT22;3293;51.690;5.982;2023-03-24T11:32:30;14.60;99.90
6520;DHT22;3293;51.690;5.982;2023-03-24T11:37:33;14.70;99.90
6520;DHT22;3293;51.690;5.982;2023-03-24T11:42:43;14.50;99.90
6520;DHT22;3293;51.690;5.982;2023-03-24T11:47:43;14.60;99.90
6520;DHT22;3293;51.690;5.982;2023-03-24T11:53:01;15.00;99.90
6520;DHT22;3293;51.690;5.982;2023-03-24T12:13:59;16.00;99.90
6520;DHT22;3293;51.690;5.982;2023-03-24T12:29:51;14.80;99.90
6520;DHT22;3293;51.690;5.982;2023-03-24T12:45:45;13.20;99.90
6520;DHT22;3293;51.690;5.982;2023-03-24T12:56:08;12.60;99.90
6520;DHT22;3293;51.690;5.982;2023-03-24T13:01:37;12.30;99.90
6520;DHT22;3293;51.690;5.982;2023-03-24T13:06:50;12.10;99.90
6520;DHT22;3293;51.690;5.982;2023-03-24T13:12:15;12.00;99.90
6520;DHT22;3293;51.690;5.982;2023-03-24T13:17:28;12.30;99.90
6520;DHT22;3293;51.690;5.982;2023-03-24T13:22:30;12.70;99.90
6520;DHT22;3293;51.690;5.982;2023-03-24T13:27:37;12.60;99.90
6520;DHT22;3293;51.690;5.982;2023-03-24T13:32:47;12.60;99.90
6520;DHT22;3293;51.690;5.982;2023-03-24T13:37:54;12.90;99.90
6520;DHT22;3293;51.690;5.982;2023-03-24T13:42:58;13.10;99.90
6520;DHT22;3293;51.690;5.982;2023-03-24T13:48:02;13.00;99.90
6520;DHT22;3293;51.690;5.982;2023-03-24T13:53:12;13.00;99.90
6520;DHT22;3293;51.690;5.982;2023-03-24T13:58:20;13.40;99.90
6520;DHT22;3293;51.690;5.982;2023-03-24T14:03:40;13.60;99.90
6520;DHT22;3293;51.690;5.982;2023-03-24T14:09:05;13.80;99.90
6520;DHT22;3293;51.690;5.982;2023-03-24T14:19:26;13.80;99.90
6520;DHT22;3293;51.690;5.982;2023-03-24T14:24:29;14.20;99.90
6520;DHT22;3293;51.690;5.982;2023-03-24T14:29:40;14.40;99.90
6520;DHT22;3293;51.690;5.982;2023-03-24T14:34:55;14.20;99.90
6520;DHT22;3293;51.690;5.982;2023-03-24T14:39:57;14.20;99.90
6520;DHT22;3293;51.690;5.982;2023-03-24T14:45:02;14.40;99.90
6520;DHT22;3293;51.690;5.982;2023-03-24T14:50:17;14.20;99.90
6520;DHT22;3293;51.690;5.982;2023-03-24T14:55:18;13.90;99.90
6520;DHT22;3293;51.690;5.982;2023-03-24T15:05:30;12.10;99.90
6520;DHT22;3293;51.690;5.982;2023-03-24T15:10:55;11.90;99.90
6520;DHT22;3293;51.690;5.982;2023-03-24T15:16:03;12.10;99.90
6520;DHT22;3293;51.690;5.982;2023-03-24T15:21:35;12.00;99.90
6520;DHT22;3293;51.690;5.982;2023-03-24T15:26:36;11.90;99.90
6520;DHT22;3293;51.690;5.982;2023-03-24T15:31:36;12.00;99.90
6520;DHT22;3293;51.690;5.982;2023-03-24T15:36:39;12.20;99.90
6520;DHT22;3293;51.690;5.982;2023-03-24T15:41:44;12.30;99.90
6520;DHT22;3293;51.690;5.982;2023-03-24T15:46:45;12.40;99.90
6520;DHT22;3293;51.690;5.982;2023-03-24T15:57:08;12.30;99.90
6520;DHT22;3293;51.690;5.982;2023-03-24T16:02:29;12.60;99.90
6520;DHT22;3293;51.690;5.982;2023-03-24T16:07:32;12.50;99.90
6520;DHT22;3293;51.690;5.982;2023-03-24T16:12:35;12.40;99.90
6520;DHT22;3293;51.690;5.982;2023-03-24T16:17:35;12.30;99.90
6520;DHT22;3293;51.690;5.982;2023-03-24T16:22:35;12.30;99.90
6520;DHT22;3293;51.690;5.982;2023-03-24T16:27:35;12.40;99.90
6520;DHT22;3293;51.690;5.982;2023-03-24T16:32:35;12.40;99.90
6520;DHT22;3293;51.690;5.982;2023-03-24T16:37:35;12.40;99.90
6520;DHT22;3293;51.690;5.982;2023-03-24T16:42:35;12.40;99.90
6520;DHT22;3293;51.690;5.982;2023-03-24T16:47:35;12.30;99.90
6520;DHT22;3293;51.690;5.982;2023-03-24T16:52:35;12.40;99.90
6520;DHT22;3293;51.690;5.982;2023-03-24T16:57:35;12.30;99.90
6520;DHT22;3293;51.690;5.982;2023-03-24T17:02:34;12.20;99.90
6520;DHT22;3293;51.690;5.982;2023-03-24T17:07:36;12.10;99.90
6520;DHT22;3293;51.690;5.982;2023-03-24T17:12:36;12.10;99.90
6520;DHT22;3293;51.690;5.982;2023-03-24T17:17:36;12.10;99.90
6520;DHT22;3293;51.690;5.982;2023-03-24T17:22:36;12.10;99.90
6520;DHT22;3293;51.690;5.982;2023-03-24T17:27:36;12.00;99.90
6520;DHT22;3293;51.690;5.982;2023-03-24T17:32:36;11.90;99.90
6520;DHT22;3293;51.690;5.982;2023-03-24T17:37:37;11.70;99.90
6520;DHT22;3293;51.690;5.982;2023-03-24T17:42:39;11.60;99.90
6520;DHT22;3293;51.690;5.982;2023-03-24T17:47:39;11.50;99.90
6520;DHT22;3293;51.690;5.982;2023-03-24T17:52:44;11.50;99.90
6520;DHT22;3293;51.690;5.982;2023-03-24T17:57:45;11.50;99.90
6520;DHT22;3293;51.690;5.982;2023-03-24T18:02:45;11.60;99.90
6520;DHT22;3293;51.690;5.982;2023-03-24T18:07:45;11.50;99.90
6520;DHT22;3293;51.690;5.982;2023-03-24T18:12:45;11.30;99.90
6520;DHT22;3293;51.690;5.982;2023-03-24T18:17:45;11.20;99.90
6520;DHT22;3293;51.690;5.982;2023-03-24T18:22:45;11.20;99.90
6520;DHT22;3293;51.690;5.982;2023-03-24T18:27:45;11.10;99.90
6520;DHT22;3293;51.690;5.982;2023-03-24T18:32:45;11.00;99.90
6520;DHT22;3293;51.690;5.982;2023-03-24T18:37:45;11.10;99.90
6520;DHT22;3293;51.690;5.982;2023-03-24T18:42:45;11.20;99.90
6520;DHT22;3293;51.690;5.982;2023-03-24T18:47:46;11.30;99.90
6520;DHT22;3293;51.690;5.982;2023-03-24T18:52:46;11.20;99.90
6520;DHT22;3293;51.690;5.982;2023-03-24T18:57:46;11.10;99.90
6520;DHT22;3293;51.690;5.982;2023-03-24T19:02:46;11.10;99.90
6520;DHT22;3293;51.690;5.982;2023-03-24T19:07:45;11.00;99.90
6520;DHT22;3293;51.690;5.982;2023-03-24T19:12:47;10.90;99.90
6520;DHT22;3293;51.690;5.982;2023-03-24T19:17:47;10.70;99.90
6520;DHT22;3293;51.690;5.982;2023-03-24T19:22:47;10.50;99.90
6520;DHT22;3293;51.690;5.982;2023-03-24T19:27:47;10.30;99.90
6520;DHT22;3293;51.690;5.982;2023-03-24T19:32:47;10.00;99.90
6520;DHT22;3293;51.690;5.982;2023-03-24T19:37:47;10.00;99.90
6520;DHT22;3293;51.690;5.982;2023-03-24T19:42:47;10.10;99.90
6520;DHT22;3293;51.690;5.982;2023-03-24T19:47:47;10.10;99.90
6520;DHT22;3293;51.690;5.982;2023-03-24T19:52:47;10.10;99.90
6520;DHT22;3293;51.690;5.982;2023-03-24T19:57:47;10.10;99.90
6520;DHT22;3293;51.690;5.982;2023-03-24T20:02:47;10.00;99.90
6520;DHT22;3293;51.690;5.982;2023-03-24T20:07:47;9.90;99.90
6520;DHT22;3293;51.690;5.982;2023-03-24T20:12:47;9.70;99.90
6520;DHT22;3293;51.690;5.982;2023-03-24T20:17:47;9.70;99.90
6520;DHT22;3293;51.690;5.982;2023-03-24T20:22:47;9.60;99.90
6520;DHT22;3293;51.690;5.982;2023-03-24T20:27:47;9.50;99.90
6520;DHT22;3293;51.690;5.982;2023-03-24T20:32:47;9.40;99.90
6520;DHT22;3293;51.690;5.982;2023-03-24T20:37:48;9.30;99.90
6520;DHT22;3293;51.690;5.982;2023-03-24T20:42:48;9.20;99.90
6520;DHT22;3293;51.690;5.982;2023-03-24T20:47:48;9.20;99.90
6520;DHT22;3293;51.690;5.982;2023-03-24T20:52:48;9.10;99.90
6520;DHT22;3293;51.690;5.982;2023-03-24T20:57:49;9.10;99.90
6520;DHT22;3293;51.690;5.982;2023-03-24T21:02:49;9.10;99.90
6520;DHT22;3293;51.690;5.982;2023-03-24T21:07:48;9.10;99.90
6520;DHT22;3293;51.690;5.982;2023-03-24T21:12:48;9.20;99.90
6520;DHT22;3293;51.690;5.982;2023-03-24T21:17:49;9.20;99.90
6520;DHT22;3293;51.690;5.982;2023-03-24T21:22:48;9.30;99.90
6520;DHT22;3293;51.690;5.982;2023-03-24T21:27:52;9.30;99.90
6520;DHT22;3293;51.690;5.982;2023-03-24T21:32:54;9.30;99.90
6520;DHT22;3293;51.690;5.982;2023-03-24T21:37:56;9.40;99.90
6520;DHT22;3293;51.690;5.982;2023-03-24T21:42:57;9.40;99.90
6520;DHT22;3293;51.690;5.982;2023-03-24T21:48:06;9.50;99.90
6520;DHT22;3293;51.690;5.982;2023-03-24T21:53:06;9.50;99.90
6520;DHT22;3293;51.690;5.982;2023-03-24T21:58:13;9.60;99.90
6520;DHT22;3293;51.690;5.982;2023-03-24T22:03:14;9.60;99.90
6520;DHT22;3293;51.690;5.982;2023-03-24T22:08:15;9.70;99.90
6520;DHT22;3293;51.690;5.982;2023-03-24T22:13:21;9.60;99.90
6520;DHT22;3293;51.690;5.982;2023-03-24T22:18:25;9.70;99.90
6520;DHT22;3293;51.690;5.982;2023-03-24T22:23:26;9.60;99.90
6520;DHT22;3293;51.690;5.982;2023-03-24T22:28:32;9.60;99.90
6520;DHT22;3293;51.690;5.982;2023-03-24T22:33:32;9.50;99.90
6520;DHT22;3293;51.690;5.982;2023-03-24T22:38:33;9.50;99.90
6520;DHT22;3293;51.690;5.982;2023-03-24T22:43:34;9.40;99.90
6520;DHT22;3293;51.690;5.982;2023-03-24T22:48:34;9.40;99.90
6520;DHT22;3293;51.690;5.982;2023-03-24T22:53:34;9.40;99.90
6520;DHT22;3293;51.690;5.982;2023-03-24T22:58:34;9.40;99.90
6520;DHT22;3293;51.690;5.982;2023-03-24T23:03:34;9.30;99.90
6520;DHT22;3293;51.690;5.982;2023-03-24T23:08:34;9.30;99.90
6520;DHT22;3293;51.690;5.982;2023-03-24T23:13:36;9.30;99.90
6520;DHT22;3293;51.690;5.982;2023-03-24T23:18:37;9.20;99.90
6520;DHT22;3293;51.690;5.982;2023-03-24T23:23:38;9.20;99.90
6520;DHT22;3293;51.690;5.982;2023-03-24T23:28:42;9.20;99.90
6520;DHT22;3293;51.690;5.982;2023-03-24T23:33:43;9.20;99.90
6520;DHT22;3293;51.690;5.982;2023-03-24T23:38:45;9.20;99.90
6520;DHT22;3293;51.690;5.982;2023-03-24T23:43:50;9.20;99.90
6520;DHT22;3293;51.690;5.982;2023-03-24T23:48:50;9.30;99.90
6520;DHT22;3293;51.690;5.982;2023-03-24T23:53:50;9.30;99.90
6520;DHT22;3293;51.690;5.982;2023-03-24T23:58:50;9.30;99.90
